createdAt,value
2022-11-09T00:00:05.668Z,53.28
2022-11-09T00:03:08.381Z,54.35
2022-11-09T00:06:12.454Z,58.22
2022-11-09T00:09:23.666Z,45.33
2022-11-09T00:12:29.547Z,54.80
2022-11-09T00:15:31.809Z,58.15
2022-11-09T00:18:39.519Z,54.92
2022-11-09T00:21:43.402Z,57.97
2022-11-09T00:24:46.865Z,63.63
2022-11-09T00:27:48.966Z,47.80
2022-11-09T00:30:51.330Z,48.00
2022-11-09T00:33:56.374Z,44.08
2022-11-09T00:36:58.511Z,42.53
2022-11-09T00:40:00.801Z,47.22
2022-11-09T00:43:03.124Z,43.22
2022-11-09T00:46:09.534Z,51.42
2022-11-09T00:49:12.108Z,44.35
2022-11-09T00:52:14.262Z,51.97
2022-11-09T00:55:16.965Z,39.92
2022-11-09T00:58:19.052Z,39.08
2022-11-09T01:01:21.768Z,33.00
2022-11-09T01:04:26.398Z,35.97
2022-11-09T01:07:29.700Z,39.53
2022-11-09T01:10:32.405Z,43.15
2022-11-09T01:13:35.377Z,36.70
2022-11-09T01:16:39.576Z,42.13
2022-11-09T01:19:41.796Z,36.10
2022-11-09T01:22:43.985Z,31.40
2022-11-09T01:25:48.296Z,36.65
2022-11-09T01:28:52.179Z,39.17
2022-11-09T01:32:01.625Z,41.45
2022-11-09T01:35:05.565Z,30.48
2022-11-09T01:38:09.647Z,34.88
2022-11-09T01:41:20.346Z,28.33
2022-11-09T01:44:22.793Z,35.47
2022-11-09T01:47:26.677Z,38.53
2022-11-09T01:50:55.962Z,33.60
2022-11-09T01:54:06.248Z,39.15
2022-11-09T01:57:16.330Z,42.30
2022-11-09T02:00:19.143Z,44.03
2022-11-09T02:03:27.857Z,30.48
2022-11-09T02:06:33.416Z,35.30
2022-11-09T02:09:50.257Z,40.30
2022-11-09T02:12:54.639Z,33.97
2022-11-09T02:15:56.879Z,34.65
2022-11-09T02:19:02.036Z,33.28
2022-11-09T02:22:06.087Z,32.15
2022-11-09T02:25:14.801Z,35.80
2022-11-09T02:28:17.984Z,36.40
2022-11-09T02:31:49.544Z,30.83
2022-11-09T02:34:51.818Z,39.22
2022-11-09T02:37:56.101Z,29.73
2022-11-09T02:40:59.646Z,35.72
2022-11-09T02:44:03.679Z,32.17
2022-11-09T02:47:06.521Z,39.25
2022-11-09T02:50:09.270Z,37.60
2022-11-09T02:53:11.728Z,32.08
2022-11-09T02:56:18.553Z,28.38
2022-11-09T02:59:20.636Z,38.40
2022-11-09T03:02:23.232Z,38.50
2022-11-09T03:05:26.865Z,34.78
2022-11-09T03:08:31.115Z,37.17
2022-11-09T03:11:33.342Z,42.05
2022-11-09T03:14:35.954Z,41.72
2022-11-09T03:17:38.626Z,40.72
2022-11-09T03:20:40.767Z,32.35
2022-11-09T03:23:43.110Z,47.35
2022-11-09T03:26:45.239Z,42.40
2022-11-09T03:29:47.590Z,39.83
2022-11-09T03:32:50.879Z,39.08
2022-11-09T03:35:53.455Z,41.83
2022-11-09T03:38:55.544Z,50.75
2022-11-09T03:41:57.800Z,47.20
2022-11-09T03:45:01.182Z,35.67
2022-11-09T03:48:03.613Z,43.95
2022-11-09T03:51:05.815Z,42.75
2022-11-09T03:54:08.131Z,42.33
2022-11-09T03:57:10.553Z,36.78
2022-11-09T04:00:17.006Z,43.97
2022-11-09T04:03:19.466Z,41.30
2022-11-09T04:06:21.759Z,50.85
2022-11-09T04:09:24.110Z,44.05
2022-11-09T04:12:26.280Z,50.20
2022-11-09T04:15:28.600Z,35.67
2022-11-09T04:18:30.648Z,38.10
2022-11-09T04:21:34.378Z,37.92
2022-11-09T04:24:39.326Z,31.88
2022-11-09T04:31:02.677Z,39.67
2022-11-09T04:34:04.806Z,36.55
2022-11-09T04:37:17.631Z,35.55
2022-11-09T04:40:21.089Z,36.60
2022-11-09T04:43:23.411Z,34.50
2022-11-09T04:49:44.767Z,39.58
2022-11-09T04:52:47.171Z,38.70
2022-11-09T04:55:55.473Z,31.15
2022-11-09T04:58:58.742Z,37.00
2022-11-09T05:02:02.848Z,37.78
2022-11-09T05:05:05.433Z,38.95
2022-11-09T05:08:11.416Z,37.83
2022-11-09T05:11:17.594Z,41.10
2022-11-09T05:14:28.371Z,35.47
2022-11-09T05:17:32.508Z,40.60
2022-11-09T05:20:36.555Z,39.28
2022-11-09T05:23:58.501Z,38.25
2022-11-09T05:27:09.339Z,42.97
2022-11-09T05:30:19.835Z,44.53
2022-11-09T05:33:22.300Z,39.92
2022-11-09T05:39:47.218Z,51.40
2022-11-09T05:52:38.915Z,41.80
2022-11-09T05:55:49.561Z,45.13
2022-11-09T05:58:52.043Z,38.33
2022-11-09T06:05:12.616Z,44.30
2022-11-09T06:08:16.362Z,41.63
2022-11-09T06:11:23.987Z,35.70
2022-11-09T06:14:26.407Z,12.32
2022-11-09T06:20:44.420Z,27.20
2022-11-09T06:23:46.510Z,23.23
2022-11-09T06:26:49.626Z,31.02
2022-11-09T06:29:51.626Z,32.17
2022-11-09T06:32:59.235Z,37.15
2022-11-09T06:36:02.446Z,47.70
2022-11-09T06:39:04.787Z,35.35
2022-11-09T06:42:07.633Z,42.65
2022-11-09T06:45:10.341Z,51.33
2022-11-09T06:48:12.621Z,34.65
2022-11-09T06:51:14.778Z,38.67
2022-11-09T06:54:16.888Z,45.42
2022-11-09T06:57:19.459Z,30.55
2022-11-09T07:00:22.949Z,31.85
2022-11-09T07:03:25.353Z,28.00
2022-11-09T07:06:27.438Z,27.40
2022-11-09T07:09:29.679Z,25.02
2022-11-09T07:12:37.924Z,25.23
2022-11-09T07:18:57.583Z,30.05
2022-11-09T07:21:59.802Z,29.45
2022-11-09T07:25:01.939Z,28.65
2022-11-09T07:28:09.434Z,25.45
2022-11-09T07:44:43.153Z,45.60
2022-11-09T07:47:45.776Z,27.15
2022-11-09T07:50:58.965Z,31.88
2022-11-09T08:53:58.734Z,20.70
2022-11-09T08:57:00.861Z,17.08
2022-11-09T09:03:22.321Z,17.83
2022-11-09T09:06:30.857Z,21.30
2022-11-09T09:09:33.896Z,19.10
2022-11-09T09:12:38.055Z,14.50
2022-11-09T09:15:40.176Z,14.50
2022-11-09T09:18:42.431Z,19.38
2022-11-09T09:21:46.694Z,30.00
2022-11-09T09:24:48.948Z,16.45
2022-11-09T09:27:51.842Z,14.40
2022-11-09T09:30:54.357Z,15.13
2022-11-09T09:33:56.624Z,22.42
2022-11-09T09:37:00.884Z,18.20
2022-11-09T09:40:03.325Z,16.52
2022-11-09T09:43:06.692Z,23.48
2022-11-09T09:46:47.833Z,19.13
2022-11-09T09:53:27.313Z,23.00
2022-11-09T10:16:33.186Z,20.63
2022-11-09T10:23:52.915Z,19.75
2022-11-09T10:26:57.935Z,23.00
2022-11-09T10:30:02.274Z,17.92
2022-11-09T10:33:17.191Z,15.43
2022-11-09T10:36:37.789Z,24.15
2022-11-09T10:39:47.274Z,19.90
2022-11-09T10:43:13.601Z,26.45
2022-11-09T10:47:03.253Z,23.20
2022-11-09T10:50:35.065Z,20.27
2022-11-09T10:54:26.114Z,13.82
2022-11-09T10:57:55.145Z,15.60
2022-11-09T11:01:20.097Z,23.27
2022-11-09T11:04:41.138Z,20.63
2022-11-09T11:12:23.136Z,20.70
2022-11-09T11:15:46.587Z,28.67
2022-11-09T11:27:14.611Z,21.55
2022-11-09T13:30:27.520Z,19.65
2022-11-09T13:33:50.456Z,24.50
2022-11-09T13:50:06.827Z,21.00
2022-11-09T14:49:07.292Z,20.23
2022-11-09T14:56:33.139Z,17.48
2022-11-09T14:59:55.681Z,21.50
2022-11-09T16:02:02.966Z,45.85
2022-11-09T16:27:43.383Z,54.83
2022-11-09T16:31:00.522Z,46.40
2022-11-09T16:38:01.340Z,56.25
2022-11-09T16:41:22.943Z,52.33
2022-11-09T16:44:45.934Z,47.97
2022-11-09T16:48:15.175Z,50.20
2022-11-09T16:55:06.088Z,50.05
2022-11-09T16:58:29.269Z,47.88
2022-11-09T17:01:57.727Z,63.90
2022-11-09T17:05:21.831Z,45.92
2022-11-09T17:08:42.746Z,53.65
2022-11-09T17:12:03.808Z,44.80
2022-11-09T17:15:26.414Z,55.90
2022-11-09T17:18:48.083Z,51.85
2022-11-09T17:22:08.521Z,56.75
2022-11-09T17:25:30.251Z,48.60
2022-11-09T17:28:51.506Z,53.40
2022-11-09T17:32:12.478Z,50.28
2022-11-09T17:35:36.791Z,53.05
2022-11-09T17:38:58.795Z,42.05
2022-11-09T17:42:19.290Z,50.95
2022-11-09T17:45:40.641Z,59.33
2022-11-09T17:49:04.543Z,42.92
2022-11-09T17:52:28.263Z,41.10
2022-11-09T17:55:50.186Z,49.92
2022-11-09T17:59:12.203Z,44.55
2022-11-09T18:02:35.351Z,45.40
2022-11-09T18:05:56.307Z,44.25
2022-11-09T18:09:40.192Z,45.67
2022-11-09T18:12:58.283Z,44.78
2022-11-09T18:16:22.061Z,49.75
2022-11-09T18:19:43.077Z,57.22
2022-11-09T18:23:03.895Z,60.13
2022-11-09T18:26:24.696Z,58.17
2022-11-09T18:29:45.860Z,66.57
2022-11-09T18:33:06.468Z,60.90
2022-11-09T18:36:28.067Z,47.92
2022-11-09T18:39:48.489Z,58.78
2022-11-09T18:43:09.245Z,52.30
2022-11-09T18:46:33.216Z,47.40
2022-11-09T18:49:54.193Z,44.47
2022-11-09T18:53:14.795Z,46.85
2022-11-09T18:56:35.527Z,46.60
2022-11-09T18:59:56.125Z,48.00
2022-11-09T19:03:17.031Z,41.67
2022-11-09T19:06:37.857Z,50.70
2022-11-09T19:09:58.302Z,40.45
2022-11-09T19:13:21.401Z,45.58
2022-11-09T19:16:41.948Z,44.47
2022-11-09T19:20:02.869Z,41.30
2022-11-09T19:23:23.361Z,41.92
2022-11-09T19:30:20.804Z,35.85
2022-11-09T19:33:42.108Z,37.45
2022-11-09T19:37:03.550Z,39.25
2022-11-09T19:40:26.113Z,30.27
2022-11-09T19:43:52.130Z,31.98
2022-11-09T19:47:17.628Z,33.08
2022-11-09T19:50:38.983Z,37.42
2022-11-09T19:57:38.693Z,28.05
2022-11-09T20:04:47.792Z,30.42
2022-11-09T20:08:18.697Z,28.48
2022-11-09T20:11:58.274Z,44.83
2022-11-09T20:15:19.597Z,34.05
2022-11-09T20:22:25.659Z,22.58
2022-11-09T20:25:46.063Z,24.80
2022-11-09T20:29:06.711Z,22.52
2022-11-09T20:32:28.630Z,26.58
2022-11-09T20:35:53.718Z,29.10
2022-11-09T20:39:14.323Z,33.35
2022-11-09T20:42:43.220Z,18.05
2022-11-09T20:53:21.634Z,15.82
2022-11-09T20:56:43.056Z,14.10
2022-11-09T21:00:06.625Z,12.82
2022-11-09T21:03:30.282Z,21.38
2022-11-09T21:06:51.601Z,12.07
2022-11-09T21:10:35.619Z,14.60
2022-11-09T21:14:00.656Z,13.35
2022-11-09T21:17:26.837Z,12.80
2022-11-09T21:20:54.589Z,15.35
2022-11-09T21:24:41.328Z,14.55
2022-11-09T21:28:24.043Z,12.07
2022-11-09T21:31:45.182Z,12.80
2022-11-09T21:35:09.755Z,12.70
2022-11-09T21:38:34.207Z,14.65
2022-11-09T21:41:54.747Z,13.77
2022-11-09T21:45:15.772Z,11.75
2022-11-09T21:48:36.533Z,13.25
2022-11-09T21:52:18.679Z,17.27
2022-11-09T21:55:41.212Z,22.63
2022-11-09T21:59:03.686Z,12.32
2022-11-09T22:02:24.422Z,12.32
2022-11-09T22:05:47.673Z,8.68
2022-11-09T22:09:14.239Z,15.32
2022-11-09T22:12:57.651Z,13.90
2022-11-09T22:16:23.048Z,13.70
2022-11-09T22:20:03.612Z,21.30
2022-11-09T22:23:27.091Z,13.10
2022-11-09T22:26:48.287Z,14.23
2022-11-09T22:30:11.538Z,15.98
2022-11-09T22:33:34.132Z,17.40
2022-11-09T22:36:55.233Z,13.13
2022-11-09T22:40:16.040Z,15.90
2022-11-09T22:43:41.817Z,14.50
2022-11-09T22:47:05.538Z,9.47
2022-11-09T22:50:27.944Z,9.77
2022-11-09T22:53:51.169Z,13.20
2022-11-09T22:57:15.776Z,6.95
2022-11-09T23:00:36.387Z,11.18
2022-11-09T23:03:57.200Z,10.73
2022-11-09T23:07:18.858Z,10.43
2022-11-09T23:10:40.892Z,10.45
2022-11-09T23:14:02.019Z,10.52
2022-11-09T23:17:42.133Z,8.60
2022-11-09T23:21:03.473Z,10.90
2022-11-09T23:24:42.792Z,8.50
2022-11-09T23:28:05.034Z,9.15
2022-11-09T23:31:28.428Z,16.27
2022-11-09T23:34:51.258Z,7.82
2022-11-09T23:38:13.383Z,8.25
2022-11-09T23:41:35.105Z,9.23
2022-11-09T23:44:56.573Z,12.57
2022-11-09T23:48:19.607Z,8.50
2022-11-09T23:51:41.130Z,6.82
2022-11-09T23:55:01.613Z,7.43
2022-11-09T23:58:22.183Z,9.68
